createdAt,value
2018-06-20T00:00:55.456Z,0
2018-06-20T00:02:05.781Z,0
2018-06-20T00:03:15.950Z,0
2018-06-20T00:04:26.131Z,0
2018-06-20T00:05:36.371Z,0
2018-06-20T00:06:46.638Z,0
2018-06-20T00:07:56.555Z,0
2018-06-20T00:09:06.739Z,0
2018-06-20T00:10:16.893Z,0
2018-06-20T00:11:26.865Z,0
2018-06-20T00:12:37.044Z,0
2018-06-20T00:13:47.200Z,0
2018-06-20T00:14:57.364Z,0
2018-06-20T00:16:07.538Z,0
2018-06-20T00:17:17.725Z,0
2018-06-20T00:18:27.658Z,0
2018-06-20T00:19:37.851Z,0
2018-06-20T00:20:48.256Z,0
2018-06-20T00:21:58.565Z,0
2018-06-20T00:23:08.761Z,0
2018-06-20T00:24:18.995Z,0
2018-06-20T00:25:29.187Z,0
2018-06-20T00:26:39.412Z,0
2018-06-20T00:27:49.717Z,0
2018-06-20T00:28:59.909Z,0
2018-06-20T00:30:10.138Z,0
2018-06-20T00:31:20.349Z,0
2018-06-20T00:32:30.564Z,0
2018-06-20T00:33:40.739Z,0
2018-06-20T00:34:50.914Z,0
2018-06-20T00:36:01.331Z,0
2018-06-20T00:37:11.513Z,0
2018-06-20T00:38:21.670Z,0
2018-06-20T00:39:32.122Z,0
2018-06-20T00:40:42.263Z,0
2018-06-20T00:41:52.689Z,0
2018-06-20T00:43:02.854Z,0
2018-06-20T00:44:13.241Z,0
2018-06-20T00:45:23.381Z,0
2018-06-20T00:46:33.363Z,0
2018-06-20T00:47:43.526Z,0
2018-06-20T00:48:53.728Z,0
2018-06-20T00:50:04.177Z,0
2018-06-20T00:51:14.346Z,0
2018-06-20T00:52:24.576Z,0
2018-06-20T00:53:34.731Z,0
2018-06-20T00:54:44.849Z,0
2018-06-20T00:55:54.994Z,0
2018-06-20T00:57:05.212Z,0
2018-06-20T00:58:15.487Z,0
2018-06-20T00:59:25.675Z,0
2018-06-20T01:00:35.905Z,0
2018-06-20T01:01:46.121Z,0
2018-06-20T01:02:56.492Z,0
2018-06-20T01:04:06.641Z,0
2018-06-20T01:05:16.813Z,0
2018-06-20T01:06:26.984Z,0
2018-06-20T01:07:37.233Z,0
2018-06-20T01:08:47.386Z,0
2018-06-20T01:09:57.647Z,0
2018-06-20T01:11:08.050Z,0
2018-06-20T01:12:18.204Z,0
2018-06-20T01:13:28.380Z,0
2018-06-20T01:14:38.286Z,0
2018-06-20T01:15:48.438Z,0
2018-06-20T01:16:58.589Z,0
2018-06-20T01:18:08.382Z,0
2018-06-20T01:19:18.526Z,0
2018-06-20T01:20:28.730Z,0
2018-06-20T01:21:38.903Z,0
2018-06-20T01:22:49.136Z,0
2018-06-20T01:23:59.334Z,0
2018-06-20T01:25:09.503Z,0
2018-06-20T01:26:19.705Z,0
2018-06-20T01:27:29.912Z,0
2018-06-20T01:28:39.825Z,0
2018-06-20T01:29:49.983Z,0
2018-06-20T01:30:59.879Z,0
2018-06-20T01:32:10.117Z,0
2018-06-20T01:33:20.308Z,0
2018-06-20T01:34:30.443Z,0
2018-06-20T01:35:40.651Z,0
2018-06-20T01:36:50.843Z,0
2018-06-20T01:38:01.020Z,0
2018-06-20T01:39:10.904Z,0
2018-06-20T01:40:21.033Z,0
2018-06-20T01:41:31.193Z,0
2018-06-20T01:42:41.413Z,0
2018-06-20T01:43:51.607Z,0
2018-06-20T01:45:01.830Z,0
2018-06-20T01:46:12.029Z,0
2018-06-20T01:47:22.156Z,0
2018-06-20T01:48:32.301Z,0
2018-06-20T01:49:42.455Z,0
2018-06-20T01:50:52.669Z,0
2018-06-20T01:52:02.798Z,0
2018-06-20T01:53:13.224Z,0
2018-06-20T01:54:23.351Z,0
2018-06-20T01:55:33.579Z,0
2018-06-20T01:56:43.725Z,0
2018-06-20T01:57:53.884Z,0
2018-06-20T01:59:04.327Z,0
2018-06-20T02:00:14.483Z,0
2018-06-20T02:01:24.608Z,0
2018-06-20T02:02:34.784Z,0
2018-06-20T02:03:44.983Z,0
2018-06-20T02:04:55.173Z,0
2018-06-20T02:06:05.329Z,0
2018-06-20T02:07:15.530Z,0
2018-06-20T02:08:25.807Z,0
2018-06-20T02:09:35.985Z,0
2018-06-20T02:10:46.197Z,0
2018-06-20T02:11:56.414Z,0
2018-06-20T02:13:06.574Z,4
2018-06-20T02:14:16.727Z,0
2018-06-20T02:15:26.846Z,0
2018-06-20T02:16:36.996Z,4
2018-06-20T02:17:46.764Z,4
2018-06-20T02:18:56.913Z,0
2018-06-20T02:20:07.089Z,4
2018-06-20T02:21:17.277Z,4
2018-06-20T02:22:27.434Z,4
2018-06-20T02:23:37.589Z,4
2018-06-20T02:24:47.760Z,4
2018-06-20T02:25:57.872Z,8
2018-06-20T02:27:08.245Z,8
2018-06-20T02:28:18.391Z,8
2018-06-20T02:29:28.531Z,12
2018-06-20T02:30:38.315Z,12
2018-06-20T02:31:48.893Z,12
2018-06-20T02:32:59.119Z,12
2018-06-20T02:34:09.286Z,16
2018-06-20T02:35:19.510Z,16
2018-06-20T02:36:29.671Z,20
2018-06-20T02:37:39.892Z,20
2018-06-20T02:38:50.105Z,24
2018-06-20T02:40:00.263Z,32
2018-06-20T02:41:10.438Z,32
2018-06-20T02:42:20.664Z,36
2018-06-20T02:43:30.834Z,40
2018-06-20T02:44:40.972Z,44
2018-06-20T02:45:51.146Z,48
2018-06-20T02:47:01.359Z,52
2018-06-20T02:48:11.491Z,60
2018-06-20T02:49:21.648Z,68
2018-06-20T02:50:31.816Z,76
2018-06-20T02:51:42.068Z,84
2018-06-20T02:52:52.263Z,92
2018-06-20T02:54:02.076Z,100
2018-06-20T02:55:12.293Z,108
2018-06-20T02:56:22.477Z,120
2018-06-20T02:57:32.827Z,132
2018-06-20T02:58:42.959Z,136
2018-06-20T02:59:53.216Z,148
2018-06-20T03:01:03.576Z,156
2018-06-20T03:02:13.714Z,164
2018-06-20T03:03:24.185Z,172
2018-06-20T03:04:34.316Z,184
2018-06-20T03:05:44.444Z,196
2018-06-20T03:06:54.708Z,208
2018-06-20T03:08:04.873Z,224
2018-06-20T03:09:15.043Z,244
2018-06-20T03:10:24.958Z,264
2018-06-20T03:11:35.142Z,288
2018-06-20T03:12:45.636Z,308
2018-06-20T03:13:55.784Z,328
2018-06-20T03:15:06.114Z,344
2018-06-20T03:16:16.337Z,356
2018-06-20T03:17:26.471Z,372
2018-06-20T03:18:36.673Z,396
2018-06-20T03:19:46.978Z,408
2018-06-20T03:20:57.165Z,424
2018-06-20T03:22:07.368Z,432
2018-06-20T03:23:17.543Z,432
2018-06-20T03:24:27.776Z,440
2018-06-20T03:25:37.658Z,456
2018-06-20T03:26:47.842Z,472
2018-06-20T03:27:57.787Z,488
2018-06-20T03:29:07.916Z,500
2018-06-20T03:30:18.087Z,516
2018-06-20T03:31:28.248Z,540
2018-06-20T03:32:38.390Z,576
2018-06-20T03:33:48.516Z,604
2018-06-20T03:34:58.641Z,640
2018-06-20T03:36:08.787Z,676
2018-06-20T03:37:18.976Z,704
2018-06-20T03:38:29.151Z,732
2018-06-20T03:39:39.351Z,744
2018-06-20T03:40:49.530Z,764
2018-06-20T03:41:59.695Z,780
2018-06-20T03:43:09.844Z,804
2018-06-20T03:44:20.047Z,820
2018-06-20T03:45:29.976Z,832
2018-06-20T03:46:40.140Z,844
2018-06-20T03:47:50.308Z,880
2018-06-20T03:49:00.558Z,932
2018-06-20T03:50:10.721Z,972
2018-06-20T03:51:20.887Z,1016
2018-06-20T03:52:30.859Z,1044
2018-06-20T03:53:41.000Z,1052
2018-06-20T03:54:51.218Z,1076
2018-06-20T03:56:01.426Z,1108
2018-06-20T03:57:11.625Z,1152
2018-06-20T03:58:21.501Z,1188
2018-06-20T03:59:31.635Z,1224
2018-06-20T04:00:41.575Z,1248
2018-06-20T04:01:51.727Z,1284
2018-06-20T04:03:01.864Z,1300
2018-06-20T04:04:12.036Z,1312
2018-06-20T04:05:22.227Z,1332
2018-06-20T04:06:32.453Z,1356
2018-06-20T04:07:42.850Z,1388
2018-06-20T04:08:52.974Z,1444
2018-06-20T04:10:03.151Z,1508
2018-06-20T04:11:13.362Z,1548
2018-06-20T04:12:23.543Z,1584
2018-06-20T04:13:33.691Z,1624
2018-06-20T04:14:44.118Z,1672
2018-06-20T04:15:54.302Z,1680
2018-06-20T04:17:04.453Z,1692
2018-06-20T04:18:14.667Z,1732
2018-06-20T04:19:25.020Z,1772
2018-06-20T04:20:35.162Z,1816
2018-06-20T04:21:45.333Z,1856
2018-06-20T04:22:55.520Z,1900
2018-06-20T04:24:05.786Z,1940
2018-06-20T04:25:15.972Z,1968
2018-06-20T04:26:26.338Z,1992
2018-06-20T04:27:36.527Z,2016
2018-06-20T04:28:46.711Z,2068
2018-06-20T04:29:56.955Z,2148
2018-06-20T04:31:07.124Z,2216
2018-06-20T04:32:17.307Z,2268
2018-06-20T04:33:27.508Z,2328
2018-06-20T04:34:37.937Z,2424
2018-06-20T04:35:48.407Z,2516
2018-06-20T04:36:58.612Z,2592
2018-06-20T04:38:08.797Z,2652
2018-06-20T04:39:18.940Z,2644
2018-06-20T04:40:29.121Z,2668
2018-06-20T04:41:39.275Z,2756
2018-06-20T04:42:49.569Z,2832
2018-06-20T04:43:59.698Z,2936
2018-06-20T04:45:09.864Z,3008
2018-06-20T04:46:20.018Z,3088
2018-06-20T04:47:30.160Z,3156
2018-06-20T04:48:40.407Z,3232
2018-06-20T04:49:50.670Z,3360
2018-06-20T04:51:00.872Z,3516
2018-06-20T04:52:11.181Z,3600
2018-06-20T04:53:21.393Z,3704
2018-06-20T04:54:31.576Z,3780
2018-06-20T04:55:42.064Z,3804
2018-06-20T04:56:52.076Z,3872
2018-06-20T04:58:02.258Z,4000
2018-06-20T04:59:12.452Z,4136
2018-06-20T05:00:22.817Z,4252
2018-06-20T05:01:32.973Z,4328
2018-06-20T05:02:43.122Z,4440
2018-06-20T05:03:53.284Z,4496
2018-06-20T05:05:03.663Z,4584
2018-06-20T05:06:13.872Z,4584
2018-06-20T05:07:24.045Z,4540
2018-06-20T05:08:34.191Z,4492
2018-06-20T05:09:44.422Z,4404
2018-06-20T05:10:54.661Z,4256
2018-06-20T05:12:04.897Z,4068
2018-06-20T05:13:15.348Z,3884
2018-06-20T05:14:25.481Z,3824
2018-06-20T05:15:35.867Z,3924
2018-06-20T05:16:46.066Z,4060
2018-06-20T05:17:56.562Z,4184
2018-06-20T05:19:06.724Z,4260
2018-06-20T05:20:16.862Z,4280
2018-06-20T05:21:26.724Z,4240
2018-06-20T05:22:37.447Z,4196
2018-06-20T05:23:47.731Z,4200
2018-06-20T05:24:57.874Z,4100
2018-06-20T05:26:08.041Z,4052
2018-06-20T05:27:18.186Z,4072
2018-06-20T05:28:28.399Z,4120
2018-06-20T05:29:38.553Z,4212
2018-06-20T05:30:48.803Z,4336
2018-06-20T05:31:58.962Z,4692
2018-06-20T05:33:09.100Z,4508
2018-06-20T05:34:19.459Z,4464
2018-06-20T05:35:29.621Z,4536
2018-06-20T05:36:39.769Z,4752
2018-06-20T05:37:49.967Z,4752
2018-06-20T05:39:00.109Z,4572
2018-06-20T05:40:10.248Z,4396
2018-06-20T05:41:20.388Z,4168
2018-06-20T05:42:30.572Z,4112
2018-06-20T05:43:40.794Z,4084
2018-06-20T05:44:51.134Z,4424
2018-06-20T05:46:01.332Z,4420
2018-06-20T05:47:11.511Z,4520
2018-06-20T05:48:21.481Z,4704
2018-06-20T05:49:31.641Z,4776
2018-06-20T05:50:41.814Z,4772
2018-06-20T05:51:51.988Z,4752
2018-06-20T05:53:02.145Z,4772
2018-06-20T05:54:12.009Z,4780
2018-06-20T05:55:21.906Z,4812
2018-06-20T05:56:32.074Z,4872
2018-06-20T05:57:42.229Z,4940
2018-06-20T05:58:52.377Z,4980
2018-06-20T06:00:02.539Z,5008
2018-06-20T06:01:12.712Z,5036
2018-06-20T06:02:22.886Z,5100
2018-06-20T06:03:33.072Z,5168
2018-06-20T06:04:43.242Z,5232
2018-06-20T06:05:53.676Z,5272
2018-06-20T06:07:03.831Z,5328
2018-06-20T06:08:21.456Z,5416
2018-06-20T06:09:31.639Z,5488
2018-06-20T06:10:41.836Z,5452
2018-06-20T06:11:53.241Z,5496
2018-06-20T06:13:03.400Z,5684
2018-06-20T06:14:13.591Z,5796
2018-06-20T06:15:23.924Z,5868
2018-06-20T06:16:34.115Z,5844
2018-06-20T06:17:44.487Z,5972
2018-06-20T06:18:54.624Z,6076
2018-06-20T06:20:04.775Z,6132
2018-06-20T06:21:14.954Z,6048
2018-06-20T06:22:25.111Z,5848
2018-06-20T06:23:35.356Z,6236
2018-06-20T06:24:45.553Z,6236
2018-06-20T06:25:55.725Z,6056
2018-06-20T06:27:05.867Z,6176
2018-06-20T06:28:16.159Z,6288
2018-06-20T06:29:26.366Z,6712
2018-06-20T06:30:36.820Z,6264
2018-06-20T06:31:47.073Z,6264
2018-06-20T06:32:56.943Z,6372
2018-06-20T06:34:07.233Z,6424
2018-06-20T06:35:17.605Z,6548
2018-06-20T06:36:27.744Z,6616
2018-06-20T06:37:38.007Z,6656
2018-06-20T06:38:48.226Z,6704
2018-06-20T06:39:58.423Z,6648
2018-06-20T06:41:08.608Z,6672
2018-06-20T06:42:18.230Z,6948
2018-06-20T06:43:28.516Z,6788
2018-06-20T06:44:38.698Z,6816
2018-06-20T06:45:48.876Z,6964
2018-06-20T06:46:59.033Z,7112
2018-06-20T06:48:09.194Z,7384
2018-06-20T06:49:19.406Z,7684
2018-06-20T06:50:29.624Z,8060
2018-06-20T06:51:39.779Z,8616
2018-06-20T06:52:49.953Z,9392
2018-06-20T06:54:00.159Z,10180
2018-06-20T06:55:10.374Z,10884
2018-06-20T06:56:20.653Z,10996
2018-06-20T06:57:30.846Z,10800
2018-06-20T06:58:40.978Z,10840
2018-06-20T06:59:51.193Z,11120
2018-06-20T07:01:01.470Z,11516
2018-06-20T07:02:11.715Z,11880
2018-06-20T07:03:21.954Z,11992
2018-06-20T07:04:32.356Z,11920
2018-06-20T07:05:42.748Z,11620
2018-06-20T07:06:52.580Z,11296
2018-06-20T07:08:02.790Z,11516
2018-06-20T07:09:12.989Z,11664
2018-06-20T07:10:22.960Z,11828
2018-06-20T07:11:33.151Z,12160
2018-06-20T07:12:43.302Z,12752
2018-06-20T07:13:53.450Z,12944
2018-06-20T07:15:03.590Z,13588
2018-06-20T07:16:13.762Z,13648
2018-06-20T07:17:24.012Z,13324
2018-06-20T07:18:34.215Z,12856
2018-06-20T07:19:44.482Z,12560
2018-06-20T07:20:54.685Z,12488
2018-06-20T07:22:04.910Z,11832
2018-06-20T07:23:15.119Z,11680
2018-06-20T07:24:25.638Z,11428
2018-06-20T07:25:35.948Z,11088
2018-06-20T07:26:46.200Z,11032
2018-06-20T07:27:56.639Z,11288
2018-06-20T07:29:06.839Z,11608
2018-06-20T07:30:17.283Z,11488
2018-06-20T07:31:27.529Z,11584
2018-06-20T07:32:37.673Z,12216
2018-06-20T07:33:47.848Z,12532
2018-06-20T07:34:58.031Z,12528
2018-06-20T07:36:08.962Z,12532
2018-06-20T07:37:19.347Z,12372
2018-06-20T07:38:29.549Z,12184
2018-06-20T07:39:39.724Z,11872
2018-06-20T07:40:50.142Z,11372
2018-06-20T07:42:00.294Z,11048
2018-06-20T07:43:10.420Z,11048
2018-06-20T07:44:20.623Z,11344
2018-06-20T07:45:30.853Z,12036
2018-06-20T07:46:40.996Z,13008
2018-06-20T07:47:51.335Z,13864
2018-06-20T07:49:01.603Z,14720
2018-06-20T07:50:11.781Z,14388
2018-06-20T07:51:22.140Z,15520
2018-06-20T07:52:33.539Z,16160
2018-06-20T07:53:46.394Z,15488
2018-06-20T07:54:56.565Z,15872
2018-06-20T07:56:06.773Z,15680
2018-06-20T07:57:17.001Z,16256
2018-06-20T07:58:27.255Z,17856
2018-06-20T07:59:37.403Z,18400
2018-06-20T08:00:48.038Z,18208
2018-06-20T08:01:58.388Z,17504
2018-06-20T08:03:08.595Z,17280
2018-06-20T08:04:18.773Z,16832
2018-06-20T08:05:28.914Z,15552
2018-06-20T08:06:39.162Z,15392
2018-06-20T08:07:49.367Z,15456
2018-06-20T08:08:59.638Z,15840
2018-06-20T08:10:09.818Z,15296
2018-06-20T08:11:20.004Z,15264
2018-06-20T08:12:30.410Z,15808
2018-06-20T08:13:40.711Z,17472
2018-06-20T08:14:50.858Z,18912
2018-06-20T08:16:01.007Z,19296
2018-06-20T08:17:11.220Z,19584
2018-06-20T08:18:21.129Z,18272
2018-06-20T08:19:31.293Z,14216
2018-06-20T08:20:41.458Z,11056
2018-06-20T08:21:51.671Z,10068
2018-06-20T08:23:01.544Z,10084
2018-06-20T08:24:11.712Z,10796
2018-06-20T08:25:21.845Z,11364
2018-06-20T08:26:32.008Z,12956
2018-06-20T08:27:42.169Z,16224
2018-06-20T08:28:52.397Z,18304
2018-06-20T08:30:02.628Z,16864
2018-06-20T08:31:12.896Z,14944
2018-06-20T08:32:23.323Z,12232
2018-06-20T08:33:33.482Z,6992
2018-06-20T08:34:43.677Z,5680
2018-06-20T08:35:53.693Z,4868
2018-06-20T08:37:03.840Z,4352
2018-06-20T08:38:13.981Z,4072
2018-06-20T08:39:24.117Z,4124
2018-06-20T08:40:34.300Z,4372
2018-06-20T08:41:44.464Z,4632
2018-06-20T08:42:54.666Z,5040
2018-06-20T08:44:04.867Z,5536
2018-06-20T08:45:15.081Z,6336
2018-06-20T08:46:26.205Z,7064
2018-06-20T08:47:36.215Z,7924
2018-06-20T08:48:46.419Z,8832
2018-06-20T08:49:56.604Z,9848
2018-06-20T08:51:06.768Z,10904
2018-06-20T08:52:16.666Z,11852
2018-06-20T08:53:26.834Z,13272
2018-06-20T08:54:36.965Z,15264
2018-06-20T08:55:47.152Z,16576
2018-06-20T08:56:57.313Z,17216
2018-06-20T08:58:07.482Z,15968
2018-06-20T08:59:17.710Z,13524
2018-06-20T09:00:28.014Z,10388
2018-06-20T09:01:38.225Z,8492
2018-06-20T09:02:48.454Z,7736
2018-06-20T09:03:58.625Z,7636
2018-06-20T09:05:08.926Z,7228
2018-06-20T09:06:19.154Z,6516
2018-06-20T09:07:29.317Z,6804
2018-06-20T09:08:39.652Z,7636
2018-06-20T09:09:49.622Z,8412
2018-06-20T09:10:59.927Z,8476
2018-06-20T09:12:10.224Z,6892
2018-06-20T09:13:20.464Z,6012
2018-06-20T09:14:30.856Z,5836
2018-06-20T09:15:41.023Z,5904
2018-06-20T09:16:50.978Z,6416
2018-06-20T09:18:01.202Z,7692
2018-06-20T09:19:11.482Z,9400
2018-06-20T09:20:21.858Z,11344
2018-06-20T09:21:32.113Z,13324
2018-06-20T09:22:42.261Z,15424
2018-06-20T09:23:52.456Z,16864
2018-06-20T09:25:02.659Z,18368
2018-06-20T09:26:12.848Z,21024
2018-06-20T09:27:23.087Z,25600
2018-06-20T09:28:33.251Z,32672
2018-06-20T09:29:43.536Z,33152
2018-06-20T09:30:53.719Z,36992
2018-06-20T09:32:03.987Z,25504
2018-06-20T09:33:14.192Z,17856
2018-06-20T09:34:24.436Z,16288
2018-06-20T09:35:34.662Z,14528
2018-06-20T09:36:44.550Z,14188
2018-06-20T09:37:56.642Z,13832
2018-06-20T09:39:06.170Z,12824
2018-06-20T09:40:16.272Z,12912
2018-06-20T09:41:26.414Z,13264
2018-06-20T09:42:36.592Z,14088
2018-06-20T09:43:46.768Z,15968
2018-06-20T09:44:56.923Z,17696
2018-06-20T09:46:07.127Z,19424
2018-06-20T09:47:17.340Z,19840
2018-06-20T09:48:27.548Z,19296
2018-06-20T09:49:37.762Z,19776
2018-06-20T09:50:47.971Z,21216
2018-06-20T09:51:58.146Z,20000
2018-06-20T09:53:08.419Z,15744
2018-06-20T09:54:18.843Z,13828
2018-06-20T09:55:29.104Z,12628
2018-06-20T09:56:39.323Z,11520
2018-06-20T09:57:49.577Z,10868
2018-06-20T09:58:59.826Z,10392
2018-06-20T10:00:09.966Z,10420
2018-06-20T10:01:20.121Z,10772
2018-06-20T10:02:30.562Z,11348
2018-06-20T10:03:40.745Z,12088
2018-06-20T10:04:50.935Z,12744
2018-06-20T10:06:01.082Z,13584
2018-06-20T10:07:11.230Z,15008
2018-06-20T10:08:21.420Z,16640
2018-06-20T10:09:31.623Z,18752
2018-06-20T10:10:41.791Z,20992
2018-06-20T10:11:51.971Z,24192
2018-06-20T10:13:02.173Z,20000
2018-06-20T10:14:12.328Z,22144
2018-06-20T10:15:22.719Z,25184
2018-06-20T10:16:32.921Z,26592
2018-06-20T10:17:43.092Z,29312
2018-06-20T10:18:54.456Z,66944
2018-06-20T10:20:04.631Z,28192
2018-06-20T10:21:15.233Z,25408
2018-06-20T10:22:25.711Z,26144
2018-06-20T10:23:35.872Z,29984
2018-06-20T10:24:46.028Z,43296
2018-06-20T10:25:56.162Z,33760
2018-06-20T10:27:06.463Z,39776
2018-06-20T10:28:16.649Z,52928
2018-06-20T10:29:26.997Z,66592
2018-06-20T10:30:37.364Z,84672
2018-06-20T10:31:47.582Z,26912
2018-06-20T10:32:57.758Z,23680
2018-06-20T10:34:07.784Z,21664
2018-06-20T10:35:18.066Z,20512
2018-06-20T10:36:27.850Z,19520
2018-06-20T10:37:38.034Z,19008
2018-06-20T10:38:48.197Z,18688
2018-06-20T10:39:58.600Z,19232
2018-06-20T10:41:08.850Z,18848
2018-06-20T10:42:19.217Z,16992
2018-06-20T10:43:29.397Z,13312
2018-06-20T10:44:39.673Z,11896
2018-06-20T10:45:49.953Z,12080
2018-06-20T10:47:00.152Z,12664
2018-06-20T10:48:10.338Z,13356
2018-06-20T10:49:20.657Z,15040
2018-06-20T10:50:30.645Z,17632
2018-06-20T10:51:41.057Z,20864
2018-06-20T10:52:51.526Z,22976
2018-06-20T10:54:01.738Z,25216
2018-06-20T10:55:11.896Z,26880
2018-06-20T10:56:22.051Z,25696
2018-06-20T10:57:32.229Z,33120
2018-06-20T10:58:42.417Z,32512
2018-06-20T10:59:52.616Z,24544
2018-06-20T11:01:02.825Z,23808
2018-06-20T11:02:13.030Z,32000
2018-06-20T11:03:23.259Z,27296
2018-06-20T11:04:33.507Z,21696
2018-06-20T11:05:43.723Z,19392
2018-06-20T11:06:53.895Z,18144
2018-06-20T11:08:04.205Z,16960
2018-06-20T11:09:14.372Z,15872
2018-06-20T11:10:24.593Z,16416
2018-06-20T11:11:34.851Z,18400
2018-06-20T11:12:45.033Z,18912
2018-06-20T11:13:55.417Z,17792
2018-06-20T11:15:05.645Z,18368
2018-06-20T11:16:15.789Z,21600
2018-06-20T11:17:25.985Z,26880
2018-06-20T11:18:36.151Z,67744
2018-06-20T11:19:46.367Z,34400
2018-06-20T11:20:56.576Z,27520
2018-06-20T11:22:06.849Z,26208
2018-06-20T11:23:17.277Z,25952
2018-06-20T11:24:27.821Z,20960
2018-06-20T11:25:38.051Z,19712
2018-06-20T11:26:49.225Z,21024
2018-06-20T11:27:59.526Z,19040
2018-06-20T11:29:09.703Z,18464
2018-06-20T11:30:19.924Z,17856
2018-06-20T11:31:30.153Z,17056
2018-06-20T11:32:40.364Z,16832
2018-06-20T11:33:50.562Z,17440
2018-06-20T11:35:00.730Z,18016
2018-06-20T11:36:10.971Z,18592
2018-06-20T11:37:21.142Z,18912
2018-06-20T11:38:31.360Z,19040
2018-06-20T11:39:41.593Z,19232
2018-06-20T11:40:51.478Z,18272
2018-06-20T11:42:01.688Z,17024
2018-06-20T11:43:12.067Z,16032
2018-06-20T11:44:22.323Z,24416
2018-06-20T11:45:32.536Z,13216
2018-06-20T11:46:42.073Z,11992
2018-06-20T11:47:52.224Z,11484
2018-06-20T11:49:02.377Z,11884
2018-06-20T11:50:12.295Z,12932
2018-06-20T11:51:22.465Z,13492
2018-06-20T11:52:32.645Z,14144
2018-06-20T11:53:42.923Z,15168
2018-06-20T11:54:53.113Z,15680
2018-06-20T11:56:03.341Z,15488
2018-06-20T11:57:13.499Z,15616
2018-06-20T11:58:23.804Z,15872
2018-06-20T11:59:33.980Z,16192
2018-06-20T12:00:44.136Z,15680
2018-06-20T12:01:54.559Z,15872
2018-06-20T12:03:04.807Z,15776
2018-06-20T12:04:14.956Z,15968
2018-06-20T12:05:25.116Z,17952
2018-06-20T12:06:35.290Z,21664
2018-06-20T12:07:45.472Z,24032
2018-06-20T12:08:55.869Z,26560
2018-06-20T12:10:05.824Z,29824
2018-06-20T12:11:16.165Z,36224
2018-06-20T12:12:26.443Z,114048
2018-06-20T12:13:36.827Z,30624
2018-06-20T12:14:47.286Z,28896
2018-06-20T12:15:57.484Z,25984
2018-06-20T12:17:07.663Z,23040
2018-06-20T12:18:17.893Z,21632
2018-06-20T12:19:28.268Z,19680
2018-06-20T12:20:38.459Z,19328
2018-06-20T12:21:48.382Z,20640
2018-06-20T12:22:58.575Z,22336
2018-06-20T12:24:08.749Z,23552
2018-06-20T12:25:18.967Z,25024
2018-06-20T12:26:29.176Z,27232
2018-06-20T12:27:39.371Z,33952
2018-06-20T12:28:49.554Z,25728
2018-06-20T12:29:59.722Z,23328
2018-06-20T12:31:09.939Z,22208
2018-06-20T12:32:20.123Z,25536
2018-06-20T12:33:30.338Z,63840
2018-06-20T12:34:40.606Z,30880
2018-06-20T12:35:50.837Z,30912
2018-06-20T12:37:01.086Z,66592
2018-06-20T12:38:10.988Z,96064
2018-06-20T12:39:20.844Z,52000
2018-06-20T12:40:31.034Z,43040
2018-06-20T12:41:41.332Z,33152
2018-06-20T12:42:51.879Z,29472
2018-06-20T12:44:02.095Z,29184
2018-06-20T12:45:12.025Z,28256
2018-06-20T12:46:22.235Z,29792
2018-06-20T12:47:32.537Z,25920
2018-06-20T12:48:42.739Z,25184
2018-06-20T12:49:52.918Z,25856
2018-06-20T12:51:03.182Z,28800
2018-06-20T12:52:13.418Z,38400
2018-06-20T12:53:23.901Z,91136
2018-06-20T12:54:34.076Z,67520
2018-06-20T12:55:44.300Z,27712
2018-06-20T12:56:54.478Z,40000
2018-06-20T12:58:04.722Z,27296
2018-06-20T12:59:14.896Z,23904
2018-06-20T13:00:25.103Z,26016
2018-06-20T13:01:35.336Z,25344
2018-06-20T13:02:45.533Z,28896
2018-06-20T13:03:55.715Z,27936
2018-06-20T13:05:05.970Z,31136
2018-06-20T13:06:16.153Z,94912
2018-06-20T13:07:26.361Z,104416
2018-06-20T13:08:36.535Z,43808
2018-06-20T13:09:46.700Z,60928
2018-06-20T13:10:56.633Z,98816
2018-06-20T13:12:06.934Z,31264
2018-06-20T13:13:17.148Z,89984
2018-06-20T13:14:27.305Z,60256
2018-06-20T13:15:37.513Z,86720
2018-06-20T13:16:47.710Z,72416
2018-06-20T13:17:57.530Z,100448
2018-06-20T13:19:07.716Z,83936
2018-06-20T13:20:18.244Z,82304
2018-06-20T13:21:28.592Z,86688
2018-06-20T13:22:38.800Z,86816
2018-06-20T13:23:49.007Z,85184
2018-06-20T13:24:59.177Z,87488
2018-06-20T13:26:09.398Z,87872
2018-06-20T13:27:19.624Z,64512
2018-06-20T13:28:29.930Z,19776
2018-06-20T13:29:40.764Z,32064
2018-06-20T13:30:50.934Z,35904
2018-06-20T13:32:01.129Z,24928
2018-06-20T13:33:11.321Z,23808
2018-06-20T13:34:21.166Z,59488
2018-06-20T13:35:31.338Z,75392
2018-06-20T13:36:41.273Z,17376
2018-06-20T13:37:51.431Z,17920
2018-06-20T13:39:01.862Z,40928
2018-06-20T13:40:12.037Z,27104
2018-06-20T13:41:21.962Z,20256
2018-06-20T13:42:31.994Z,77408
2018-06-20T13:43:42.201Z,25024
2018-06-20T13:44:52.374Z,65152
2018-06-20T13:46:02.595Z,47808
2018-06-20T13:47:12.855Z,56736
2018-06-20T13:48:23.059Z,84928
2018-06-20T13:49:33.271Z,99200
2018-06-20T13:50:43.185Z,79360
2018-06-20T13:51:53.374Z,45856
2018-06-20T13:53:03.562Z,37696
2018-06-20T13:54:13.719Z,39488
2018-06-20T13:55:24.168Z,28832
2018-06-20T13:56:34.368Z,73440
2018-06-20T13:57:44.532Z,73344
2018-06-20T13:58:54.714Z,67712
2018-06-20T14:00:04.907Z,60352
2018-06-20T14:01:15.086Z,64608
2018-06-20T14:02:25.331Z,40288
2018-06-20T14:03:35.560Z,65408
2018-06-20T14:04:45.766Z,10856
2018-06-20T14:05:55.980Z,11044
2018-06-20T14:07:06.180Z,45696
2018-06-20T14:08:16.492Z,54944
2018-06-20T14:09:26.668Z,18144
2018-06-20T14:10:36.904Z,76032
2018-06-20T14:11:47.113Z,12236
2018-06-20T14:12:57.346Z,10124
2018-06-20T14:14:07.539Z,12836
2018-06-20T14:15:17.804Z,43872
2018-06-20T14:16:27.979Z,57376
2018-06-20T14:17:38.241Z,57312
2018-06-20T14:18:48.429Z,63520
2018-06-20T14:19:58.666Z,61504
2018-06-20T14:21:08.910Z,45248
2018-06-20T14:22:19.107Z,60896
2018-06-20T14:23:29.305Z,67136
2018-06-20T14:24:39.534Z,67264
2018-06-20T14:25:49.482Z,69376
2018-06-20T14:26:59.662Z,81056
2018-06-20T14:28:09.846Z,76320
2018-06-20T14:29:21.289Z,16992
2018-06-20T14:30:31.526Z,27328
2018-06-20T14:31:41.780Z,14140
2018-06-20T14:32:52.048Z,46336
2018-06-20T14:34:02.315Z,40928
2018-06-20T14:35:12.232Z,55488
2018-06-20T14:36:22.900Z,63872
2018-06-20T14:37:33.077Z,52448
2018-06-20T14:38:43.780Z,43648
2018-06-20T14:39:54.339Z,49600
2018-06-20T14:41:04.525Z,58464
2018-06-20T14:42:14.726Z,59776
2018-06-20T14:43:25.008Z,56992
2018-06-20T14:44:35.224Z,53056
2018-06-20T14:45:45.652Z,56448
2018-06-20T14:46:55.591Z,60128
2018-06-20T14:48:05.930Z,60288
2018-06-20T14:49:16.203Z,63008
2018-06-20T14:50:26.404Z,61728
2018-06-20T14:51:36.629Z,53408
2018-06-20T14:52:46.811Z,45088
2018-06-20T14:53:57.041Z,50304
2018-06-20T14:55:07.214Z,56800
2018-06-20T14:56:17.543Z,47136
2018-06-20T14:57:27.845Z,44224
2018-06-20T14:58:38.086Z,44128
2018-06-20T14:59:48.312Z,27296
2018-06-20T15:00:58.346Z,12316
2018-06-20T15:02:08.784Z,8820
2018-06-20T15:03:18.979Z,6888
2018-06-20T15:04:29.155Z,12404
2018-06-20T15:05:39.114Z,11576
2018-06-20T15:06:49.640Z,11980
2018-06-20T15:07:59.760Z,11644
2018-06-20T15:09:12.140Z,10948
2018-06-20T15:10:22.423Z,10948
2018-06-20T15:11:32.614Z,11524
2018-06-20T15:12:42.841Z,11300
2018-06-20T15:13:53.178Z,11696
2018-06-20T15:15:04.351Z,11004
2018-06-20T15:16:14.619Z,9748
2018-06-20T15:17:24.821Z,8340
2018-06-20T15:18:35.070Z,7964
2018-06-20T15:19:45.307Z,7836
2018-06-20T15:20:55.469Z,7704
2018-06-20T15:22:05.855Z,7844
2018-06-20T15:23:16.090Z,7644
2018-06-20T15:24:26.324Z,7540
2018-06-20T15:25:36.507Z,7512
2018-06-20T15:26:46.742Z,7404
2018-06-20T15:27:57.128Z,7280
2018-06-20T15:29:07.086Z,7172
2018-06-20T15:30:17.484Z,7088
2018-06-20T15:31:27.689Z,7052
2018-06-20T15:32:37.928Z,7040
2018-06-20T15:33:48.159Z,7016
2018-06-20T15:34:58.298Z,6992
2018-06-20T15:36:08.526Z,6948
2018-06-20T15:37:18.716Z,6888